createdAt,value
2023-09-15T00:00:25.802Z,2.90
2023-09-15T00:02:56.347Z,2.92
2023-09-15T00:05:30.402Z,3.03
2023-09-15T00:08:01.398Z,2.70
2023-09-15T00:10:28.070Z,2.50
2023-09-15T00:12:54.664Z,2.40
2023-09-15T00:15:21.416Z,2.55
2023-09-15T00:17:49.183Z,2.60
2023-09-15T00:20:16.047Z,2.67
2023-09-15T00:22:50.293Z,2.50
2023-09-15T00:25:22.073Z,2.28
2023-09-15T00:27:50.159Z,2.90
2023-09-15T00:30:18.210Z,2.58
2023-09-15T00:32:46.812Z,2.67
2023-09-15T00:35:17.459Z,2.42
2023-09-15T00:37:47.075Z,2.40
2023-09-15T00:40:21.038Z,2.65
2023-09-15T00:42:49.404Z,2.47
2023-09-15T00:45:20.341Z,2.38
2023-09-15T00:47:53.462Z,2.63
2023-09-15T00:50:24.004Z,2.45
2023-09-15T00:52:55.483Z,2.70
2023-09-15T00:55:25.506Z,2.38
2023-09-15T00:57:53.636Z,2.78
2023-09-15T01:00:20.888Z,2.58
2023-09-15T01:02:49.016Z,2.65
2023-09-15T01:05:22.142Z,3.15
2023-09-15T01:07:53.603Z,2.53
2023-09-15T01:10:21.809Z,2.17
2023-09-15T01:12:50.082Z,2.45
2023-09-15T01:15:18.293Z,2.78
2023-09-15T01:18:19.112Z,2.65
2023-09-15T01:21:04.214Z,2.30
2023-09-15T01:24:01.306Z,2.33
2023-09-15T01:27:13.785Z,2.38
2023-09-15T01:29:58.158Z,2.45
2023-09-15T01:32:26.512Z,2.38
2023-09-15T01:34:54.428Z,2.03
2023-09-15T01:37:22.024Z,2.47
2023-09-15T01:39:51.147Z,2.55
2023-09-15T01:42:18.195Z,2.20
2023-09-15T01:44:44.898Z,2.13
2023-09-15T01:47:18.678Z,2.15
2023-09-15T01:49:45.962Z,2.13
2023-09-15T01:52:14.211Z,2.08
2023-09-15T01:54:40.766Z,2.30
2023-09-15T01:57:07.229Z,2.53
2023-09-15T01:59:33.993Z,1.95
2023-09-15T02:02:00.471Z,2.78
2023-09-15T02:04:27.027Z,2.40
2023-09-15T02:06:53.492Z,2.30
2023-09-15T02:09:20.231Z,2.22
2023-09-15T02:11:47.166Z,2.60
2023-09-15T02:14:13.672Z,2.30
2023-09-15T02:16:40.104Z,2.45
2023-09-15T02:19:08.708Z,2.30
2023-09-15T02:21:35.354Z,3.08
2023-09-15T02:24:03.255Z,2.00
2023-09-15T02:26:30.239Z,1.92
2023-09-15T02:28:56.656Z,2.40
2023-09-15T02:31:23.633Z,2.25
2023-09-15T02:33:50.135Z,2.20
2023-09-15T02:36:16.745Z,2.00
2023-09-15T02:38:43.181Z,2.78
2023-09-15T02:41:09.916Z,2.42
2023-09-15T02:43:36.360Z,1.83
2023-09-15T02:46:04.731Z,2.30
2023-09-15T02:48:31.445Z,2.40
2023-09-15T02:50:59.646Z,2.30
2023-09-15T02:53:26.215Z,2.08
2023-09-15T02:56:06.570Z,1.95
2023-09-15T02:58:33.592Z,2.05
2023-09-15T03:01:01.144Z,2.38
2023-09-15T03:03:27.809Z,2.10
2023-09-15T03:06:08.891Z,2.17
2023-09-15T03:08:36.170Z,2.03
2023-09-15T03:11:02.955Z,2.13
2023-09-15T03:13:29.580Z,2.10
2023-09-15T03:15:56.188Z,2.30
2023-09-15T03:18:23.028Z,2.17
2023-09-15T03:20:49.522Z,2.28
2023-09-15T03:23:16.239Z,2.40
2023-09-15T03:25:42.667Z,2.40
2023-09-15T03:28:11.234Z,2.40
2023-09-15T03:30:39.760Z,2.08
2023-09-15T03:33:08.183Z,2.00
2023-09-15T03:35:34.720Z,2.03
2023-09-15T03:38:01.115Z,1.83
2023-09-15T03:40:27.613Z,1.95
2023-09-15T03:42:54.036Z,2.35
2023-09-15T03:45:20.585Z,1.85
2023-09-15T03:47:47.075Z,2.08
2023-09-15T03:50:20.670Z,2.28
2023-09-15T03:52:48.191Z,2.00
2023-09-15T03:55:15.041Z,2.10
2023-09-15T03:57:41.511Z,2.03
2023-09-15T04:00:16.296Z,1.95
2023-09-15T04:02:42.823Z,2.45
2023-09-15T04:05:09.597Z,1.80
2023-09-15T04:07:36.103Z,1.70
2023-09-15T04:10:03.771Z,1.90
2023-09-15T04:12:31.317Z,1.70
2023-09-15T04:14:57.764Z,1.70
2023-09-15T04:17:24.270Z,1.80
2023-09-15T04:19:50.736Z,2.17
2023-09-15T04:22:17.227Z,1.83
2023-09-15T04:24:43.804Z,1.98
2023-09-15T04:27:10.231Z,1.70
2023-09-15T04:29:52.448Z,2.28
2023-09-15T04:32:18.920Z,1.75
2023-09-15T04:34:45.352Z,2.13
2023-09-15T04:37:11.904Z,2.03
2023-09-15T04:39:38.886Z,2.40
2023-09-15T04:42:05.982Z,2.00
2023-09-15T04:44:32.457Z,2.15
2023-09-15T04:46:59.054Z,2.10
2023-09-15T04:49:25.617Z,2.38
2023-09-15T04:51:52.127Z,2.40
2023-09-15T04:54:18.634Z,1.90
2023-09-15T04:56:45.318Z,1.98
2023-09-15T04:59:16.904Z,2.20
2023-09-15T05:01:45.026Z,1.80
2023-09-15T05:04:11.960Z,2.33
2023-09-15T05:06:38.900Z,1.92
2023-09-15T05:09:06.762Z,2.28
2023-09-15T05:11:33.192Z,1.88
2023-09-15T05:13:59.688Z,2.58
2023-09-15T05:16:26.206Z,2.00
2023-09-15T05:18:52.730Z,2.30
2023-09-15T05:21:19.189Z,2.13
2023-09-15T05:23:45.662Z,2.22
2023-09-15T05:26:12.198Z,2.28
2023-09-15T05:28:38.666Z,1.85
2023-09-15T05:31:05.264Z,2.58
2023-09-15T05:33:31.723Z,2.22
2023-09-15T05:35:58.530Z,2.83
2023-09-15T05:38:25.259Z,2.88
2023-09-15T05:40:51.932Z,2.20
2023-09-15T05:43:19.663Z,2.17
2023-09-15T05:45:46.728Z,2.10
2023-09-15T05:48:19.110Z,2.35
2023-09-15T05:50:45.883Z,2.17
2023-09-15T05:53:12.402Z,2.65
2023-09-15T05:55:38.889Z,2.40
2023-09-15T05:58:05.451Z,2.30
2023-09-15T06:00:31.957Z,2.08
2023-09-15T06:02:59.382Z,2.65
2023-09-15T06:05:26.487Z,2.08
2023-09-15T06:07:54.007Z,2.72
2023-09-15T06:10:21.299Z,2.30
2023-09-15T06:12:51.721Z,2.10
2023-09-15T06:15:18.689Z,2.15
2023-09-15T06:17:45.495Z,2.20
2023-09-15T06:20:11.987Z,1.77
2023-09-15T06:22:38.475Z,2.15
2023-09-15T06:25:05.534Z,2.20
2023-09-15T06:27:34.435Z,2.10
2023-09-15T06:30:02.252Z,2.15
2023-09-15T06:32:28.769Z,2.03
2023-09-15T06:34:55.871Z,2.10
2023-09-15T06:37:24.989Z,2.20
2023-09-15T06:39:52.549Z,2.38
2023-09-15T06:42:19.078Z,2.00
2023-09-15T06:44:45.525Z,2.00
2023-09-15T06:47:12.133Z,2.60
2023-09-15T06:49:38.671Z,2.67
2023-09-15T06:52:06.157Z,2.55
2023-09-15T06:54:32.613Z,2.38
2023-09-15T06:56:59.032Z,2.40
2023-09-15T06:59:25.546Z,2.05
2023-09-15T07:01:51.959Z,2.10
2023-09-15T07:04:18.745Z,2.58
2023-09-15T07:06:45.314Z,2.22
2023-09-15T07:09:11.781Z,2.22
2023-09-15T07:11:38.390Z,2.10
2023-09-15T07:14:04.928Z,1.92
2023-09-15T07:16:31.576Z,2.10
2023-09-15T07:18:58.243Z,1.80
2023-09-15T07:21:24.735Z,2.10
2023-09-15T07:23:51.260Z,1.73
2023-09-15T07:26:17.972Z,1.75
2023-09-15T07:28:44.385Z,1.83
2023-09-15T07:31:11.694Z,1.83
2023-09-15T07:33:38.206Z,2.10
2023-09-15T07:36:05.993Z,2.05
2023-09-15T07:38:34.261Z,2.08
2023-09-15T07:41:01.019Z,1.95
2023-09-15T07:43:27.572Z,1.85
2023-09-15T07:45:54.539Z,1.98
2023-09-15T07:48:22.958Z,2.13
2023-09-15T07:50:51.671Z,2.13
2023-09-15T07:53:18.410Z,2.65
2023-09-15T07:55:44.912Z,1.70
2023-09-15T07:58:11.399Z,1.98
2023-09-15T08:00:38.001Z,1.83
2023-09-15T08:03:06.165Z,1.85
2023-09-15T08:05:32.673Z,2.05
2023-09-15T08:07:59.181Z,1.70
2023-09-15T08:10:27.817Z,2.00
2023-09-15T08:12:54.320Z,1.90
2023-09-15T08:15:21.832Z,1.50
2023-09-15T08:17:48.571Z,1.77
2023-09-15T08:20:15.815Z,2.05
2023-09-15T08:22:43.075Z,1.88
2023-09-15T08:25:12.209Z,1.40
2023-09-15T08:27:39.569Z,1.58
2023-09-15T08:30:09.748Z,1.65
2023-09-15T08:32:36.711Z,2.45
2023-09-15T08:35:06.279Z,1.70
2023-09-15T08:37:33.046Z,1.73
2023-09-15T08:40:00.031Z,2.45
2023-09-15T08:42:27.931Z,1.52
2023-09-15T08:44:55.574Z,1.73
2023-09-15T08:47:22.017Z,1.63
2023-09-15T08:49:50.010Z,1.88
2023-09-15T08:52:17.422Z,1.60
2023-09-15T08:54:44.282Z,1.83
2023-09-15T08:57:11.405Z,1.30
2023-09-15T08:59:40.012Z,1.65
2023-09-15T09:02:08.784Z,1.45
2023-09-15T09:04:35.285Z,1.63
2023-09-15T09:07:04.488Z,1.67
2023-09-15T09:09:31.951Z,1.40
2023-09-15T09:11:58.884Z,1.50
2023-09-15T09:14:25.385Z,1.75
2023-09-15T09:16:54.146Z,1.58
2023-09-15T09:19:20.826Z,1.30
2023-09-15T09:21:47.592Z,1.40
2023-09-15T09:24:15.922Z,1.35
2023-09-15T09:26:54.954Z,1.38
2023-09-15T09:29:28.856Z,1.40
2023-09-15T09:31:56.364Z,1.35
2023-09-15T09:34:39.660Z,1.70
2023-09-15T09:37:09.443Z,1.70
2023-09-15T09:39:36.319Z,1.70
2023-09-15T09:42:03.961Z,1.50
2023-09-15T09:44:32.140Z,1.80
2023-09-15T09:46:59.150Z,1.80
2023-09-15T09:49:25.772Z,1.50
2023-09-15T09:51:53.159Z,1.58
2023-09-15T09:54:19.564Z,1.73
2023-09-15T09:56:51.025Z,1.50
2023-09-15T09:59:17.672Z,1.70
2023-09-15T10:01:44.221Z,1.77
2023-09-15T10:04:10.865Z,1.40
2023-09-15T10:06:38.191Z,1.60
2023-09-15T10:09:09.177Z,1.73
2023-09-15T10:11:36.628Z,1.10
2023-09-15T10:14:04.920Z,1.50
2023-09-15T10:16:35.599Z,1.83
2023-09-15T10:19:05.040Z,1.70
2023-09-15T10:21:36.252Z,1.70
2023-09-15T10:24:09.670Z,1.60
2023-09-15T10:26:40.729Z,1.67
2023-09-15T10:29:07.225Z,1.20
2023-09-15T10:31:35.176Z,1.40
2023-09-15T10:34:05.885Z,1.45
2023-09-15T10:36:35.535Z,2.08
2023-09-15T10:39:15.549Z,1.63
2023-09-15T10:41:42.466Z,1.98
2023-09-15T10:44:09.081Z,1.90
2023-09-15T10:46:40.560Z,1.98
2023-09-15T10:49:19.365Z,1.60
2023-09-15T10:51:53.433Z,1.60
2023-09-15T10:54:20.758Z,2.03
2023-09-15T10:56:48.701Z,1.67
2023-09-15T10:59:17.517Z,1.67
2023-09-15T11:01:44.918Z,1.65
2023-09-15T11:04:19.278Z,1.38
2023-09-15T11:09:15.152Z,1.33
2023-09-15T11:11:49.598Z,1.60
2023-09-15T11:14:18.669Z,1.35
2023-09-15T11:16:51.715Z,1.67
2023-09-15T11:19:19.554Z,1.48
2023-09-15T11:21:47.111Z,1.42
2023-09-15T11:24:14.127Z,1.40
2023-09-15T11:26:49.028Z,1.70
2023-09-15T11:29:16.576Z,1.60
2023-09-15T11:31:44.814Z,1.08
2023-09-15T11:34:15.452Z,1.92
2023-09-15T11:36:43.834Z,1.50
2023-09-15T11:39:13.535Z,1.30
2023-09-15T11:41:46.072Z,1.45
2023-09-15T11:44:12.925Z,1.20
2023-09-15T11:46:40.632Z,1.17
2023-09-15T11:49:07.648Z,1.30
2023-09-15T11:51:36.484Z,1.20
2023-09-15T11:54:04.720Z,1.30
2023-09-15T11:56:32.577Z,1.27
2023-09-15T11:59:00.100Z,1.30
2023-09-15T12:01:28.365Z,1.17
2023-09-15T12:03:55.129Z,1.45
2023-09-15T12:06:21.857Z,1.63
2023-09-15T12:08:51.055Z,1.20
2023-09-15T12:11:19.127Z,1.10
2023-09-15T12:13:52.086Z,1.65
2023-09-15T12:16:20.530Z,1.35
2023-09-15T12:18:48.681Z,1.10
2023-09-15T12:21:16.182Z,1.40
2023-09-15T12:23:45.321Z,1.48
2023-09-15T12:26:12.923Z,1.25
2023-09-15T12:28:39.804Z,1.23
2023-09-15T12:31:07.556Z,1.23
2023-09-15T12:33:34.161Z,1.15
2023-09-15T12:36:07.309Z,1.20
2023-09-15T12:38:33.856Z,1.17
2023-09-15T12:41:00.442Z,1.20
2023-09-15T12:43:27.093Z,1.20
2023-09-15T12:45:54.976Z,1.40
2023-09-15T12:48:22.552Z,1.30
2023-09-15T12:50:49.249Z,1.30
2023-09-15T12:53:15.864Z,1.23
2023-09-15T12:55:42.499Z,1.30
2023-09-15T12:58:09.152Z,1.33
2023-09-15T13:00:35.671Z,1.10
2023-09-15T13:03:02.272Z,1.27
2023-09-15T13:05:28.885Z,1.40
2023-09-15T13:07:55.350Z,1.13
2023-09-15T13:10:22.196Z,1.30
2023-09-15T13:12:48.664Z,1.60
2023-09-15T13:15:15.230Z,1.20
2023-09-15T13:17:41.776Z,1.25
2023-09-15T13:20:08.691Z,1.30
2023-09-15T13:22:38.942Z,1.23
2023-09-15T13:25:08.029Z,1.60
2023-09-15T13:27:35.070Z,1.13
2023-09-15T13:30:01.713Z,1.27
2023-09-15T13:32:28.734Z,1.30
2023-09-15T13:34:56.034Z,1.00
2023-09-15T13:37:25.589Z,1.30
2023-09-15T13:39:52.000Z,1.30
2023-09-15T13:42:36.386Z,1.25
2023-09-15T13:45:04.534Z,1.38
2023-09-15T13:47:35.793Z,1.42
2023-09-15T13:50:04.295Z,1.20
2023-09-15T13:52:31.859Z,1.30
2023-09-15T13:54:59.246Z,1.40
2023-09-15T13:57:28.879Z,1.27
2023-09-15T13:59:56.361Z,1.25
2023-09-15T14:02:24.980Z,1.35
2023-09-15T14:04:51.869Z,0.95
2023-09-15T14:07:18.458Z,1.10
2023-09-15T14:09:45.055Z,1.10
2023-09-15T14:12:12.954Z,1.30
2023-09-15T14:14:40.240Z,1.38
2023-09-15T14:17:08.882Z,1.27
2023-09-15T14:19:35.780Z,1.20
2023-09-15T14:22:03.508Z,1.20
2023-09-15T14:24:33.938Z,1.17
2023-09-15T14:27:02.087Z,1.30
2023-09-15T14:29:28.593Z,1.30
2023-09-15T14:31:55.392Z,1.17
2023-09-15T14:34:21.836Z,1.15
2023-09-15T14:36:48.367Z,1.30
2023-09-15T14:39:17.687Z,0.90
2023-09-15T14:41:44.286Z,1.23
2023-09-15T14:44:18.517Z,1.27
2023-09-15T14:46:46.233Z,1.42
2023-09-15T14:49:12.970Z,1.10
2023-09-15T14:51:39.968Z,1.35
2023-09-15T14:54:06.638Z,1.63
2023-09-15T14:56:33.528Z,1.10
2023-09-15T14:58:59.984Z,1.30
2023-09-15T15:01:26.585Z,1.35
2023-09-15T15:03:53.120Z,1.08
2023-09-15T15:06:19.722Z,1.20
2023-09-15T15:08:46.843Z,1.33
2023-09-15T15:11:13.616Z,1.30
2023-09-15T15:13:40.177Z,0.85
2023-09-15T15:16:10.563Z,1.15
2023-09-15T15:18:37.318Z,1.27
2023-09-15T15:21:04.557Z,3.20
2023-09-15T15:23:32.555Z,1.60
2023-09-15T15:26:07.926Z,1.40
2023-09-15T15:28:36.170Z,1.27
2023-09-15T15:31:02.962Z,1.05
2023-09-15T15:33:29.568Z,1.08
2023-09-15T15:36:04.108Z,1.35
2023-09-15T15:41:01.569Z,1.13
2023-09-15T15:43:28.679Z,1.13
2023-09-15T15:45:58.408Z,1.52
2023-09-15T15:48:25.509Z,1.20
2023-09-15T15:50:53.217Z,1.33
2023-09-15T15:53:19.726Z,1.15
2023-09-15T15:55:46.572Z,1.40
2023-09-15T15:58:13.466Z,1.05
2023-09-15T16:00:39.970Z,1.10
2023-09-15T16:03:06.598Z,1.10
2023-09-15T16:05:34.184Z,1.17
2023-09-15T16:08:04.046Z,1.08
2023-09-15T16:10:32.972Z,1.42
2023-09-15T16:12:59.509Z,1.20
2023-09-15T16:15:26.100Z,1.48
2023-09-15T16:17:54.702Z,1.30
2023-09-15T16:20:24.328Z,1.30
2023-09-15T16:22:50.786Z,1.02
2023-09-15T16:25:17.461Z,1.17
2023-09-15T16:27:43.982Z,1.17
2023-09-15T16:30:10.802Z,1.17
2023-09-15T16:32:38.449Z,1.15
2023-09-15T16:35:05.479Z,1.52
2023-09-15T16:37:31.898Z,1.33
2023-09-15T16:39:58.983Z,1.40
2023-09-15T16:42:25.504Z,1.30
2023-09-15T16:44:51.989Z,1.40
2023-09-15T16:47:20.068Z,2.20
2023-09-15T16:49:46.464Z,1.55
2023-09-15T16:52:12.934Z,1.30
2023-09-15T16:54:39.341Z,1.33
2023-09-15T16:57:05.995Z,1.42
2023-09-15T16:59:33.485Z,1.80
2023-09-15T17:02:04.991Z,1.52
2023-09-15T17:04:31.499Z,1.60
2023-09-15T17:06:57.921Z,1.40
2023-09-15T17:09:24.425Z,1.60
2023-09-15T17:11:50.994Z,1.58
2023-09-15T17:14:17.445Z,1.67
2023-09-15T17:16:43.904Z,1.33
2023-09-15T17:19:10.368Z,1.40
2023-09-15T17:21:36.795Z,2.10
2023-09-15T17:24:03.564Z,1.85
2023-09-15T17:26:46.269Z,2.55
2023-09-15T17:29:13.920Z,2.70
2023-09-15T17:31:41.049Z,3.00
2023-09-15T17:34:07.843Z,2.47
2023-09-15T17:36:34.427Z,2.92
2023-09-15T17:39:01.318Z,2.65
2023-09-15T17:41:27.792Z,2.83
2023-09-15T17:43:54.212Z,3.10
2023-09-15T17:46:20.762Z,2.00
2023-09-15T17:48:48.858Z,2.08
2023-09-15T17:51:15.603Z,2.25
2023-09-15T17:53:42.105Z,1.90
2023-09-15T17:56:08.571Z,1.98
2023-09-15T17:58:35.333Z,1.88
2023-09-15T18:01:01.824Z,2.00
2023-09-15T18:03:28.358Z,1.92
2023-09-15T18:05:54.837Z,2.17
2023-09-15T18:08:21.312Z,1.95
2023-09-15T18:10:48.611Z,2.00
2023-09-15T18:13:15.180Z,1.83
2023-09-15T18:15:41.804Z,2.17
2023-09-15T18:18:08.502Z,2.30
2023-09-15T18:20:35.231Z,2.03
2023-09-15T18:23:01.707Z,2.03
2023-09-15T18:25:28.120Z,1.92
2023-09-15T18:27:55.017Z,2.05
2023-09-15T18:30:21.641Z,1.90
2023-09-15T18:32:50.951Z,2.03
2023-09-15T18:35:17.537Z,2.47
2023-09-15T18:37:44.009Z,2.22
2023-09-15T18:40:10.668Z,2.33
2023-09-15T18:42:37.112Z,2.22
2023-09-15T18:45:03.955Z,2.30
2023-09-15T18:47:30.547Z,2.33
2023-09-15T18:49:59.140Z,2.00
2023-09-15T18:52:25.734Z,1.90
2023-09-15T18:54:52.235Z,2.10
2023-09-15T18:57:19.039Z,2.10
2023-09-15T18:59:46.319Z,2.30
2023-09-15T19:02:13.309Z,2.40
2023-09-15T19:04:40.231Z,2.25
2023-09-15T19:07:06.673Z,2.25
2023-09-15T19:09:33.170Z,2.20
2023-09-15T19:12:00.463Z,2.92
2023-09-15T19:14:26.935Z,2.35
2023-09-15T19:16:54.316Z,2.17
2023-09-15T19:19:20.830Z,2.80
2023-09-15T19:21:47.270Z,2.05
2023-09-15T19:24:14.572Z,2.55
2023-09-15T19:26:41.118Z,2.83
2023-09-15T19:29:07.771Z,2.75
2023-09-15T19:31:34.269Z,2.47
2023-09-15T19:34:00.811Z,2.58
2023-09-15T19:36:27.844Z,2.58
2023-09-15T19:38:54.300Z,2.03
2023-09-15T19:41:20.717Z,2.75
2023-09-15T19:43:47.133Z,2.50
2023-09-15T19:46:14.071Z,2.60
2023-09-15T19:48:41.169Z,2.83
2023-09-15T19:51:07.645Z,2.78
2023-09-15T19:53:34.067Z,2.70
2023-09-15T19:56:04.894Z,3.03
2023-09-15T19:58:32.680Z,2.55
2023-09-15T20:00:59.156Z,3.03
2023-09-15T20:03:26.444Z,2.60
2023-09-15T20:05:52.899Z,2.83
2023-09-15T20:08:19.436Z,3.03
2023-09-15T20:10:45.970Z,2.67
2023-09-15T20:13:12.453Z,2.65
2023-09-15T20:15:40.599Z,2.85
2023-09-15T20:18:07.537Z,2.83
2023-09-15T20:20:39.209Z,2.97
2023-09-15T20:23:08.901Z,3.15
2023-09-15T20:25:35.379Z,3.58
2023-09-15T20:28:01.942Z,3.47
2023-09-15T20:30:28.511Z,3.03
2023-09-15T20:32:55.017Z,3.05
2023-09-15T20:35:21.495Z,3.63
2023-09-15T20:37:47.982Z,3.17
2023-09-15T20:40:14.424Z,3.72
2023-09-15T20:42:41.007Z,2.85
2023-09-15T20:45:07.867Z,3.00
2023-09-15T20:47:34.423Z,2.90
2023-09-15T20:50:00.843Z,3.03
2023-09-15T20:52:27.600Z,3.03
2023-09-15T20:54:54.231Z,3.30
2023-09-15T20:57:20.777Z,3.20
2023-09-15T20:59:47.189Z,3.08
2023-09-15T21:02:13.586Z,3.15
2023-09-15T21:04:40.147Z,3.15
2023-09-15T21:07:06.737Z,3.38
2023-09-15T21:09:33.350Z,3.05
2023-09-15T21:11:59.994Z,3.17
2023-09-15T21:14:27.906Z,2.58
2023-09-15T21:16:55.253Z,2.72
2023-09-15T21:19:21.725Z,3.25
2023-09-15T21:21:48.269Z,2.80
2023-09-15T21:24:14.800Z,2.88
2023-09-15T21:26:41.243Z,2.53
2023-09-15T21:29:07.772Z,2.92
2023-09-15T21:31:36.184Z,3.28
2023-09-15T21:34:03.367Z,3.10
2023-09-15T21:36:29.956Z,3.05
2023-09-15T21:38:56.566Z,2.90
2023-09-15T21:41:26.395Z,3.30
2023-09-15T21:43:52.885Z,2.83
2023-09-15T21:46:19.701Z,3.15
2023-09-15T21:48:46.382Z,3.15
2023-09-15T21:51:13.021Z,3.30
2023-09-15T21:53:39.619Z,3.45
2023-09-15T21:56:06.172Z,2.95
2023-09-15T21:58:32.652Z,3.20
2023-09-15T22:00:59.065Z,3.17
2023-09-15T22:03:25.688Z,2.90
2023-09-15T22:05:55.793Z,3.35
2023-09-15T22:08:22.676Z,3.20
2023-09-15T22:10:49.917Z,3.30
2023-09-15T22:13:17.541Z,3.53
2023-09-15T22:15:44.347Z,3.10
2023-09-15T22:18:14.036Z,3.17
2023-09-15T22:20:41.651Z,2.60
2023-09-15T22:23:08.868Z,3.20
2023-09-15T22:25:35.982Z,3.05
2023-09-15T22:28:02.632Z,2.83
2023-09-15T22:30:29.377Z,2.65
2023-09-15T22:32:56.196Z,3.05
2023-09-15T22:35:23.239Z,2.63
2023-09-15T22:37:51.139Z,2.78
2023-09-15T22:40:18.052Z,3.10
2023-09-15T22:42:45.535Z,2.83
2023-09-15T22:45:19.675Z,3.08
2023-09-15T22:47:51.725Z,3.08
2023-09-15T22:50:20.393Z,3.33
2023-09-15T22:52:47.130Z,2.60
2023-09-15T22:55:18.183Z,3.00
2023-09-15T22:57:45.937Z,3.15
2023-09-15T23:00:13.956Z,2.85
2023-09-15T23:02:45.252Z,3.00
2023-09-15T23:05:12.092Z,3.25
2023-09-15T23:07:40.311Z,3.15
2023-09-15T23:10:08.171Z,2.83
2023-09-15T23:12:34.989Z,3.10
2023-09-15T23:15:02.248Z,2.97
2023-09-15T23:17:28.864Z,3.08
2023-09-15T23:19:58.296Z,3.17
2023-09-15T23:22:24.956Z,2.97
2023-09-15T23:24:52.731Z,2.90
2023-09-15T23:27:19.842Z,2.92
2023-09-15T23:29:46.597Z,3.28
2023-09-15T23:32:13.173Z,3.22
2023-09-15T23:34:40.251Z,2.97
2023-09-15T23:37:06.761Z,3.10
2023-09-15T23:39:36.060Z,3.10
2023-09-15T23:42:03.200Z,2.70
2023-09-15T23:44:29.713Z,3.17
2023-09-15T23:46:56.428Z,3.28
2023-09-15T23:49:23.102Z,3.05
2023-09-15T23:51:49.794Z,2.72
2023-09-15T23:54:16.664Z,2.80
2023-09-15T23:56:44.137Z,3.03
2023-09-15T23:59:10.711Z,3.08
